createdAt,value
2017-07-07T00:00:38.860Z,17.06
2017-07-07T00:01:24.597Z,17.16
2017-07-07T00:02:24.298Z,17.18
2017-07-07T00:03:24.645Z,17.16
2017-07-07T00:04:24.677Z,17.16
2017-07-07T00:05:24.703Z,17.11
2017-07-07T00:06:24.421Z,17.15
2017-07-07T00:07:24.749Z,17.14
2017-07-07T00:08:24.454Z,17
2017-07-07T00:09:24.479Z,17.11
2017-07-07T00:10:24.507Z,17.01
2017-07-07T00:11:24.206Z,16.97
2017-07-07T00:12:24.888Z,16.89
2017-07-07T00:13:24.585Z,16.93
2017-07-07T00:14:24.920Z,16.82
2017-07-07T00:15:24.669Z,16.96
2017-07-07T00:16:24.639Z,16.94
2017-07-07T00:17:24.682Z,17.03
2017-07-07T00:18:24.389Z,16.88
2017-07-07T00:19:25.055Z,16.98
2017-07-07T00:20:25.060Z,16.94
2017-07-07T00:21:24.773Z,16.91
2017-07-07T00:22:24.491Z,16.93
2017-07-07T00:23:24.802Z,16.86
2017-07-07T00:24:25.172Z,16.82
2017-07-07T00:25:24.870Z,16.81
2017-07-07T00:26:39.806Z,16.82
2017-07-07T00:27:25.235Z,16.85
2017-07-07T00:28:25.274Z,16.86
2017-07-07T00:29:24.981Z,16.81
2017-07-07T00:30:25.303Z,16.86
2017-07-07T00:31:25.338Z,16.83
2017-07-07T00:32:24.719Z,16.91
2017-07-07T00:33:25.394Z,16.88
2017-07-07T00:34:25.077Z,16.85
2017-07-07T00:35:25.126Z,16.97
2017-07-07T00:36:24.819Z,16.94
2017-07-07T00:37:25.483Z,16.83
2017-07-07T00:38:25.510Z,16.85
2017-07-07T00:39:25.521Z,16.85
2017-07-07T00:40:25.228Z,16.89
2017-07-07T00:41:25.272Z,16.89
2017-07-07T00:42:40.203Z,16.93
2017-07-07T00:43:25.613Z,16.94
2017-07-07T00:44:25.660Z,16.96
2017-07-07T00:45:25.671Z,16.94
2017-07-07T00:46:25.706Z,16.94
2017-07-07T00:47:25.402Z,16.94
2017-07-07T00:48:25.753Z,17
2017-07-07T00:49:25.775Z,16.96
2017-07-07T00:50:40.397Z,16.97
2017-07-07T00:51:25.833Z,16.96
2017-07-07T00:52:25.852Z,17.06
2017-07-07T00:53:25.862Z,17.01
2017-07-07T00:54:25.897Z,17.07
2017-07-07T00:55:25.908Z,17.14
2017-07-07T00:56:25.637Z,17.07
2017-07-07T00:58:40.281Z,17.12
2017-07-07T00:59:26.025Z,17.12
2017-07-07T01:00:26.042Z,17.16
2017-07-07T01:01:40.654Z,17.14
2017-07-07T01:02:26.088Z,17.04
2017-07-07T01:03:40.720Z,17.11
2017-07-07T01:04:25.814Z,17.16
2017-07-07T01:05:25.849Z,17.18
2017-07-07T01:06:26.196Z,17.14
2017-07-07T01:07:25.896Z,17.18
2017-07-07T01:08:40.512Z,17.21
2017-07-07T01:09:26.307Z,17.18
2017-07-07T01:10:26.294Z,17.19
2017-07-07T01:11:26.294Z,17.25
2017-07-07T01:12:26.336Z,17.22
2017-07-07T01:14:40.974Z,17.23
2017-07-07T01:15:26.405Z,17.28
2017-07-07T01:16:26.437Z,17.21
2017-07-07T01:17:26.446Z,17.3
2017-07-07T01:18:26.495Z,17.25
2017-07-07T01:19:25.866Z,17.31
2017-07-07T01:21:41.158Z,17.25
2017-07-07T01:22:26.255Z,17.31
2017-07-07T01:23:26.294Z,17.28
2017-07-07T01:24:25.993Z,17.28
2017-07-07T01:25:26.666Z,17.3
2017-07-07T01:26:26.659Z,17.28
2017-07-07T01:27:26.383Z,17.31
2017-07-07T01:28:26.712Z,17.3
2017-07-07T01:29:41.351Z,17.28
2017-07-07T01:30:26.782Z,17.44
2017-07-07T01:31:26.789Z,17.38
2017-07-07T01:32:26.497Z,17.41
2017-07-07T01:33:26.834Z,17.41
2017-07-07T01:34:26.555Z,17.34
2017-07-07T01:35:26.877Z,17.38
2017-07-07T01:36:26.924Z,17.4
2017-07-07T01:37:26.934Z,17.38
2017-07-07T01:38:41.249Z,17.44
2017-07-07T01:39:26.352Z,17.38
2017-07-07T01:40:27.018Z,17.34
2017-07-07T01:41:26.724Z,17.26
2017-07-07T01:42:41.663Z,17.37
2017-07-07T01:43:27.072Z,17.46
2017-07-07T01:44:26.799Z,17.38
2017-07-07T01:45:26.504Z,17.38
2017-07-07T01:46:27.161Z,17.3
2017-07-07T01:47:27.176Z,17.37
2017-07-07T01:49:26.908Z,17.34
2017-07-07T01:50:41.848Z,17.41
2017-07-07T01:51:26.968Z,17.33
2017-07-07T01:52:26.991Z,17.28
2017-07-07T01:53:27.335Z,17.41
2017-07-07T01:54:27.355Z,17.4
2017-07-07T01:56:27.390Z,17.37
2017-07-07T01:57:27.113Z,17.43
2017-07-07T01:58:42.050Z,17.4
2017-07-07T01:59:27.171Z,17.4
2017-07-07T02:00:27.516Z,17.43
2017-07-07T02:01:42.113Z,17.4
2017-07-07T02:02:27.559Z,17.38
2017-07-07T02:03:27.260Z,17.43
2017-07-07T02:04:27.283Z,17.4
2017-07-07T02:05:27.625Z,17.41
2017-07-07T02:06:27.021Z,17.33
2017-07-07T02:07:27.667Z,17.4
2017-07-07T02:08:27.705Z,17.38
2017-07-07T02:09:27.719Z,17.44
2017-07-07T02:11:27.758Z,17.37
2017-07-07T02:12:27.799Z,17.26
2017-07-07T02:13:42.412Z,17.26
2017-07-07T02:14:27.851Z,17.38
2017-07-07T02:15:27.869Z,17.3
2017-07-07T02:16:27.890Z,17.26
2017-07-07T02:17:42.512Z,17.31
2017-07-07T02:18:27.608Z,17.34
2017-07-07T02:20:27.973Z,17.28
2017-07-07T02:21:28.017Z,17.28
2017-07-07T02:22:42.623Z,17.22
2017-07-07T02:24:28.088Z,17.33
2017-07-07T02:25:27.797Z,17.23
2017-07-07T02:26:27.490Z,17.25
2017-07-07T02:27:27.841Z,17.22
2017-07-07T02:28:28.172Z,17.25
2017-07-07T02:29:28.264Z,17.25
2017-07-07T02:31:27.921Z,17.15
2017-07-07T02:32:27.961Z,17.18
2017-07-07T02:33:42.891Z,17.22
2017-07-07T02:34:28.331Z,17.19
2017-07-07T02:35:28.361Z,17.19
2017-07-07T02:36:27.747Z,17.19
2017-07-07T02:37:28.074Z,17.18
2017-07-07T02:38:28.424Z,17.15
2017-07-07T02:40:28.210Z,17.15
2017-07-07T02:41:28.167Z,17.19
2017-07-07T02:42:28.526Z,17.12
2017-07-07T02:43:28.531Z,17.23
2017-07-07T02:44:28.570Z,17.16
2017-07-07T02:45:28.596Z,17.18
2017-07-07T02:46:28.306Z,17.16
2017-07-07T02:48:28.343Z,17.19
2017-07-07T02:49:42.973Z,17.11
2017-07-07T02:50:28.386Z,17.15
2017-07-07T02:51:28.745Z,17.16
2017-07-07T02:52:28.758Z,17.18
2017-07-07T02:53:28.795Z,17.25
2017-07-07T02:54:28.482Z,17.21
2017-07-07T02:55:28.504Z,17.21
2017-07-07T02:56:28.858Z,17.23
2017-07-07T02:57:28.257Z,17.19
2017-07-07T02:58:28.601Z,17.21
2017-07-07T02:59:28.922Z,17.15
2017-07-07T03:00:28.958Z,17.21
2017-07-07T03:01:28.965Z,17.16
2017-07-07T03:02:29.006Z,17.21
2017-07-07T03:03:29.014Z,17.14
2017-07-07T03:05:29.072Z,17.22
2017-07-07T03:06:29.100Z,17.22
2017-07-07T03:07:29.118Z,17.16
2017-07-07T03:08:29.168Z,17.23
2017-07-07T03:09:28.858Z,17.25
2017-07-07T03:10:29.194Z,17.23
2017-07-07T03:11:29.212Z,17.19
2017-07-07T03:12:29.236Z,17.14
2017-07-07T03:13:29.270Z,17.14
2017-07-07T03:14:43.896Z,17.23
2017-07-07T03:15:29.325Z,17.23
2017-07-07T03:16:29.336Z,17.25
2017-07-07T03:17:29.369Z,17.33
2017-07-07T03:18:29.368Z,17.25
2017-07-07T03:19:29.096Z,17.28
2017-07-07T03:21:29.447Z,17.31
2017-07-07T03:22:28.856Z,17.3
2017-07-07T03:23:29.195Z,17.3
2017-07-07T03:24:29.537Z,17.31
2017-07-07T03:25:29.235Z,17.38
2017-07-07T03:27:29.611Z,17.41
2017-07-07T03:28:29.633Z,17.36
2017-07-07T03:29:29.669Z,17.44
2017-07-07T03:30:29.680Z,17.49
2017-07-07T03:31:44.305Z,17.46
2017-07-07T03:32:29.716Z,17.49
2017-07-07T03:33:29.762Z,17.54
2017-07-07T03:34:29.783Z,17.48
2017-07-07T03:35:29.799Z,17.51
2017-07-07T03:36:44.423Z,17.48
2017-07-07T03:37:29.543Z,17.56
2017-07-07T03:38:29.243Z,17.56
2017-07-07T03:39:29.589Z,17.55
2017-07-07T03:40:29.909Z,17.54
2017-07-07T03:41:29.633Z,17.59
2017-07-07T03:42:29.966Z,17.56
2017-07-07T03:43:29.994Z,17.64
2017-07-07T03:44:30.014Z,17.7
2017-07-07T03:45:30.056Z,17.64
2017-07-07T03:46:44.671Z,17.68
2017-07-07T03:47:30.128Z,17.75
2017-07-07T03:48:30.127Z,17.77
2017-07-07T03:49:29.827Z,17.82
2017-07-07T03:50:30.173Z,17.82
2017-07-07T03:51:30.174Z,17.9
2017-07-07T03:52:44.812Z,18.02
2017-07-07T03:53:30.238Z,18.07
2017-07-07T03:54:30.263Z,17.95
2017-07-07T03:55:44.879Z,18.07
2017-07-07T03:56:30.311Z,18.14
2017-07-07T03:57:30.341Z,18.11
2017-07-07T03:58:30.038Z,18.12
2017-07-07T03:59:30.389Z,18.18
2017-07-07T04:00:30.097Z,18.11
2017-07-07T04:01:30.419Z,18.14
2017-07-07T04:02:30.144Z,18.1
2017-07-07T04:03:30.539Z,18.1
2017-07-07T04:04:30.507Z,18.15
2017-07-07T04:05:30.522Z,18.21
2017-07-07T04:06:30.550Z,18.11
2017-07-07T04:07:30.583Z,18.08
2017-07-07T04:08:45.198Z,18.14
2017-07-07T04:09:30.638Z,18.14
2017-07-07T04:10:45.246Z,18.14
2017-07-07T04:11:30.692Z,18.07
2017-07-07T04:12:30.687Z,18.18
2017-07-07T04:13:30.728Z,18.14
2017-07-07T04:14:30.751Z,18.11
2017-07-07T04:15:30.768Z,18.18
2017-07-07T04:16:30.821Z,18.26
2017-07-07T04:17:30.839Z,18.25
2017-07-07T04:18:30.841Z,18.26
2017-07-07T04:19:30.888Z,18.25
2017-07-07T04:20:30.905Z,18.26
2017-07-07T04:21:30.928Z,18.29
2017-07-07T04:22:30.312Z,18.29
2017-07-07T04:23:30.639Z,18.36
2017-07-07T04:24:45.593Z,18.32
2017-07-07T04:25:31.026Z,18.3
2017-07-07T04:26:31.046Z,18.37
2017-07-07T04:27:31.083Z,18.39
2017-07-07T04:28:31.090Z,18.39
2017-07-07T04:29:30.802Z,18.37
2017-07-07T04:30:30.827Z,18.42
2017-07-07T04:31:30.538Z,18.47
2017-07-07T04:32:45.793Z,18.36
2017-07-07T04:33:30.575Z,18.37
2017-07-07T04:34:31.249Z,18.41
2017-07-07T04:35:30.953Z,18.55
2017-07-07T04:36:31.304Z,18.5
2017-07-07T04:37:30.679Z,18.5
2017-07-07T04:38:31.341Z,18.48
2017-07-07T04:39:45.954Z,18.51
2017-07-07T04:41:31.424Z,18.55
2017-07-07T04:42:31.126Z,18.63
2017-07-07T04:43:46.069Z,18.54
2017-07-07T04:44:31.474Z,18.52
2017-07-07T04:45:31.511Z,18.6
2017-07-07T04:46:31.524Z,18.55
2017-07-07T04:47:31.554Z,18.72
2017-07-07T04:48:31.573Z,18.73
2017-07-07T04:49:31.618Z,18.75
2017-07-07T04:50:31.642Z,18.75
2017-07-07T04:51:31.336Z,18.78
2017-07-07T04:52:31.683Z,18.78
2017-07-07T04:53:31.397Z,18.73
2017-07-07T04:54:31.748Z,18.82
2017-07-07T04:55:31.442Z,18.78
2017-07-07T04:56:31.777Z,18.8
2017-07-07T04:57:31.815Z,18.82
2017-07-07T04:58:31.819Z,18.85
2017-07-07T04:59:31.866Z,18.8
2017-07-07T05:00:31.937Z,18.8
2017-07-07T05:01:31.587Z,18.82
2017-07-07T05:02:46.211Z,18.78
2017-07-07T05:04:31.980Z,18.73
2017-07-07T05:05:46.599Z,18.76
2017-07-07T05:06:32.041Z,18.8
2017-07-07T05:07:32.057Z,18.72
2017-07-07T05:08:32.069Z,18.76
2017-07-07T05:09:32.100Z,18.76
2017-07-07T05:10:32.118Z,18.8
2017-07-07T05:11:46.761Z,18.7
2017-07-07T05:12:32.165Z,18.81
2017-07-07T05:13:46.485Z,18.76
2017-07-07T05:14:32.221Z,18.72
2017-07-07T05:15:32.242Z,18.72
2017-07-07T05:16:32.266Z,18.75
2017-07-07T05:17:32.284Z,18.75
2017-07-07T05:18:32.327Z,18.82
2017-07-07T05:19:32.347Z,18.7
2017-07-07T05:20:32.370Z,18.75
2017-07-07T05:21:32.443Z,18.7
2017-07-07T05:22:32.083Z,18.7
2017-07-07T05:23:32.447Z,18.72
2017-07-07T05:24:32.466Z,18.75
2017-07-07T05:25:32.179Z,18.76
2017-07-07T05:27:47.145Z,18.65
2017-07-07T05:28:32.578Z,18.66
2017-07-07T05:29:32.580Z,18.66
2017-07-07T05:30:32.308Z,18.52
2017-07-07T05:31:32.322Z,18.48
2017-07-07T05:32:32.669Z,18.5
2017-07-07T05:33:32.688Z,18.47
2017-07-07T05:34:32.695Z,18.39
2017-07-07T05:35:32.741Z,18.41
2017-07-07T05:36:32.767Z,18.44
2017-07-07T05:37:32.479Z,18.25
2017-07-07T05:38:32.802Z,18.21
2017-07-07T05:40:32.854Z,18.15
2017-07-07T05:41:32.562Z,18.1
2017-07-07T05:42:32.277Z,17.82
2017-07-07T05:43:47.526Z,17.55
2017-07-07T05:44:32.969Z,17.31
2017-07-07T05:45:47.572Z,17.28
2017-07-07T05:46:33.018Z,17.22
2017-07-07T05:47:32.701Z,17.31
2017-07-07T05:48:33.065Z,17.3
2017-07-07T05:49:33.078Z,17.23
2017-07-07T05:50:47.706Z,17.3
2017-07-07T05:51:33.128Z,17.22
2017-07-07T05:52:33.146Z,17.19
2017-07-07T05:53:33.190Z,17.18
2017-07-07T05:54:33.213Z,17.22
2017-07-07T05:56:33.240Z,17.19
2017-07-07T05:58:33.283Z,17.16
2017-07-07T05:59:47.926Z,17.16
2017-07-07T06:00:33.350Z,17.15
2017-07-07T06:01:33.372Z,17.06
2017-07-07T06:02:33.389Z,17.06
2017-07-07T06:03:48.026Z,17.03
2017-07-07T06:04:33.434Z,17.04
2017-07-07T06:05:33.480Z,17.18
2017-07-07T06:06:33.493Z,17.14
2017-07-07T06:07:33.821Z,17.14
2017-07-07T06:08:33.532Z,17.16
2017-07-07T06:09:33.567Z,17.14
2017-07-07T06:10:33.652Z,17.22
2017-07-07T06:11:33.596Z,17.25
2017-07-07T06:12:33.332Z,17.28
2017-07-07T06:13:33.661Z,17.22
2017-07-07T06:14:48.288Z,17.4
2017-07-07T06:15:33.752Z,17.3
2017-07-07T06:16:33.735Z,17.3
2017-07-07T06:17:33.440Z,17.31
2017-07-07T06:18:33.773Z,17.37
2017-07-07T06:19:33.795Z,17.55
2017-07-07T06:20:33.841Z,17.41
2017-07-07T06:21:33.853Z,17.38
2017-07-07T06:23:33.268Z,17.46
2017-07-07T06:24:33.918Z,17.43
2017-07-07T06:25:33.940Z,17.4
2017-07-07T06:26:33.954Z,17.48
2017-07-07T06:27:34.006Z,17.43
2017-07-07T06:28:34.017Z,17.51
2017-07-07T06:29:34.053Z,17.54
2017-07-07T06:30:34.065Z,17.48
2017-07-07T06:31:34.106Z,17.51
2017-07-07T06:34:34.176Z,17.55
2017-07-07T06:35:34.177Z,17.48
2017-07-07T06:36:48.498Z,17.37
2017-07-07T06:37:33.608Z,17.54
2017-07-07T06:38:33.629Z,17.54
2017-07-07T06:39:33.974Z,17.62
2017-07-07T06:40:34.363Z,17.55
2017-07-07T06:41:34.347Z,17.56
2017-07-07T06:42:34.376Z,17.62
2017-07-07T06:43:34.368Z,17.71
2017-07-07T06:44:34.092Z,17.75
2017-07-07T06:45:34.473Z,17.86
2017-07-07T06:46:49.062Z,17.86
2017-07-07T06:47:34.483Z,17.9
2017-07-07T06:48:34.196Z,17.87
2017-07-07T06:49:49.120Z,17.95
2017-07-07T06:51:34.586Z,17.95
2017-07-07T06:52:34.600Z,17.92
2017-07-07T06:53:34.633Z,17.92
2017-07-07T06:54:34.322Z,17.99
2017-07-07T06:55:34.662Z,17.93
2017-07-07T06:56:34.740Z,17.9
2017-07-07T06:57:34.709Z,17.82
2017-07-07T06:59:34.785Z,17.82
2017-07-07T07:00:34.806Z,17.82
2017-07-07T07:01:34.809Z,17.89
2017-07-07T07:02:49.445Z,17.82
2017-07-07T07:05:34.923Z,17.78
2017-07-07T07:06:34.946Z,17.81
2017-07-07T07:07:34.977Z,17.7
2017-07-07T07:08:34.983Z,17.75
2017-07-07T07:09:34.707Z,17.72
2017-07-07T07:10:35.040Z,17.64
2017-07-07T07:11:35.059Z,17.66
2017-07-07T07:12:35.100Z,17.64
2017-07-07T07:13:35.117Z,17.62
2017-07-07T07:14:35.199Z,17.68
2017-07-07T07:15:34.847Z,17.74
2017-07-07T07:16:35.202Z,17.74
2017-07-07T07:17:35.223Z,17.74
2017-07-07T07:18:49.833Z,17.7
2017-07-07T07:19:34.945Z,17.71
2017-07-07T07:20:34.964Z,17.74
2017-07-07T07:21:34.988Z,17.64
2017-07-07T07:22:35.327Z,17.62
2017-07-07T07:23:35.058Z,17.68
2017-07-07T07:24:49.668Z,17.66
2017-07-07T07:25:35.079Z,17.7
2017-07-07T07:26:35.444Z,17.64
2017-07-07T07:27:34.869Z,17.77
2017-07-07T07:28:35.181Z,17.74
2017-07-07T07:29:35.505Z,17.68
2017-07-07T07:30:50.130Z,17.72
2017-07-07T07:32:35.272Z,17.77
2017-07-07T07:33:35.388Z,17.72
2017-07-07T07:34:50.224Z,17.71
2017-07-07T07:35:35.347Z,17.75
2017-07-07T07:36:35.354Z,17.75
2017-07-07T07:37:35.808Z,17.81
2017-07-07T07:38:35.717Z,17.78
2017-07-07T07:39:35.423Z,17.77
2017-07-07T07:40:35.783Z,17.82
2017-07-07T07:41:35.496Z,17.75
2017-07-07T07:42:35.553Z,17.79
2017-07-07T07:43:35.316Z,17.77
2017-07-07T07:45:35.586Z,17.95
2017-07-07T07:46:35.599Z,17.87
2017-07-07T07:47:35.630Z,17.93
2017-07-07T07:48:35.650Z,17.92
2017-07-07T07:49:50.594Z,17.92
2017-07-07T07:50:35.694Z,17.95
2017-07-07T07:51:35.715Z,17.86
2017-07-07T07:52:35.757Z,17.79
2017-07-07T07:53:35.762Z,17.82
2017-07-07T07:55:35.830Z,17.86
2017-07-07T07:56:35.895Z,17.92
2017-07-07T07:57:36.197Z,17.96
2017-07-07T07:58:36.203Z,17.92
2017-07-07T07:59:50.840Z,17.9
2017-07-07T08:00:36.367Z,17.95
2017-07-07T08:01:36.290Z,17.92
2017-07-07T08:02:35.687Z,17.92
2017-07-07T08:03:36.337Z,17.89
2017-07-07T08:04:35.729Z,17.93
2017-07-07T08:05:35.763Z,17.92
2017-07-07T08:06:35.764Z,17.93
2017-07-07T08:07:36.443Z,17.97
2017-07-07T08:08:36.456Z,17.93
2017-07-07T08:09:35.851Z,17.9
2017-07-07T08:10:36.233Z,17.96
2017-07-07T08:11:36.228Z,18.03
2017-07-07T08:12:36.243Z,18.02
2017-07-07T08:13:36.585Z,18.02
2017-07-07T08:14:36.332Z,17.97
2017-07-07T08:15:36.623Z,17.96
2017-07-07T08:16:36.349Z,17.96
2017-07-07T08:17:36.370Z,17.99
2017-07-07T08:18:36.711Z,18.08
2017-07-07T08:19:36.095Z,18
2017-07-07T08:20:36.437Z,17.93
2017-07-07T08:21:51.367Z,17.99
2017-07-07T08:22:36.831Z,17.99
2017-07-07T08:23:36.928Z,17.95
2017-07-07T08:24:36.220Z,17.96
2017-07-07T08:25:36.883Z,17.92
2017-07-07T08:26:51.490Z,18.1
2017-07-07T08:27:51.308Z,18.07
2017-07-07T08:28:36.943Z,18.12
2017-07-07T08:29:37.069Z,18.18
2017-07-07T08:30:36.686Z,18.11
2017-07-07T08:31:36.396Z,18.14
2017-07-07T08:32:36.412Z,18.27
2017-07-07T08:34:36.466Z,18.35
2017-07-07T08:35:37.123Z,18.41
2017-07-07T08:36:37.150Z,18.44
2017-07-07T08:37:51.450Z,18.51
2017-07-07T08:38:37.197Z,18.44
2017-07-07T08:40:37.255Z,18.48
2017-07-07T08:41:37.258Z,18.63
2017-07-07T08:42:36.981Z,18.69
2017-07-07T08:43:37.413Z,18.73
2017-07-07T08:44:37.337Z,18.81
2017-07-07T08:45:37.354Z,18.76
2017-07-07T08:46:37.391Z,18.76
2017-07-07T08:47:52.017Z,18.85
2017-07-07T08:48:37.449Z,18.84
2017-07-07T08:49:37.469Z,18.92
2017-07-07T08:50:37.481Z,18.94
2017-07-07T08:51:37.533Z,18.91
2017-07-07T08:52:37.527Z,18.98
2017-07-07T08:53:52.168Z,19.04
2017-07-07T08:55:37.295Z,19
2017-07-07T08:56:37.327Z,19.07
2017-07-07T08:57:37.707Z,19.02
2017-07-07T08:58:37.703Z,19.06
2017-07-07T08:59:37.716Z,19.06
2017-07-07T09:00:37.421Z,19.1
2017-07-07T09:01:37.498Z,19
2017-07-07T09:02:37.471Z,19.04
2017-07-07T09:03:37.868Z,18.94
2017-07-07T09:04:37.515Z,19.04
2017-07-07T09:05:37.236Z,19
2017-07-07T09:06:37.586Z,19.02
2017-07-07T09:07:37.959Z,19.06
2017-07-07T09:08:37.953Z,18.99
2017-07-07T09:09:52.553Z,19.04
2017-07-07T09:10:37.666Z,18.98
2017-07-07T09:11:38.003Z,18.91
2017-07-07T09:13:38.061Z,18.87
2017-07-07T09:14:37.768Z,18.87
2017-07-07T09:16:38.124Z,18.88
2017-07-07T09:17:52.443Z,18.9
2017-07-07T09:18:37.873Z,18.98
2017-07-07T09:19:37.575Z,18.88
2017-07-07T09:20:38.242Z,18.92
2017-07-07T09:21:38.263Z,18.91
2017-07-07T09:22:37.970Z,18.92
2017-07-07T09:23:38.409Z,18.9
2017-07-07T09:24:52.928Z,18.84
2017-07-07T09:25:38.368Z,18.87
2017-07-07T09:26:38.429Z,19.06
2017-07-07T09:27:38.413Z,19.06
2017-07-07T09:29:38.497Z,19.16
2017-07-07T09:30:38.176Z,19.16
2017-07-07T09:31:38.520Z,19.16
2017-07-07T09:32:38.527Z,19.29
2017-07-07T09:33:38.556Z,19.28
2017-07-07T09:34:38.573Z,19.36
2017-07-07T09:36:38.623Z,19.61
2017-07-07T09:37:38.659Z,19.59
2017-07-07T09:38:38.362Z,19.68
2017-07-07T09:39:38.823Z,19.77
2017-07-07T09:40:53.324Z,19.88
2017-07-07T09:41:38.766Z,19.91
2017-07-07T09:42:38.769Z,19.99
2017-07-07T09:43:38.510Z,20.01
2017-07-07T09:44:38.826Z,20.13
2017-07-07T09:45:38.853Z,20.2
2017-07-07T09:46:38.564Z,20.23
2017-07-07T09:47:38.603Z,20.18
2017-07-07T09:48:39.081Z,20.41
2017-07-07T09:49:38.967Z,20.62
2017-07-07T09:50:38.654Z,20.74
2017-07-07T09:51:39.006Z,20.91
2017-07-07T09:52:39.039Z,21.1
2017-07-07T09:54:39.088Z,21.34
2017-07-07T09:55:38.901Z,21.59
2017-07-07T09:56:53.726Z,21.83
2017-07-07T09:57:38.849Z,22.03
2017-07-07T09:58:38.881Z,22.12
2017-07-07T09:59:53.803Z,22.25
2017-07-07T10:00:38.928Z,22.35
2017-07-07T10:01:38.947Z,22.37
2017-07-07T10:02:39.174Z,22.49
2017-07-07T10:03:39.325Z,22.51
2017-07-07T10:04:53.944Z,22.47
2017-07-07T10:05:39.476Z,22.55
2017-07-07T10:07:39.431Z,22.57
2017-07-07T10:08:39.115Z,22.42
2017-07-07T10:09:39.468Z,22.33
2017-07-07T10:10:39.171Z,22.25
2017-07-07T10:11:39.534Z,22.12
2017-07-07T10:12:54.153Z,22.21
2017-07-07T10:13:39.572Z,22.31
2017-07-07T10:14:39.610Z,22.49
2017-07-07T10:15:39.627Z,22.52
2017-07-07T10:16:39.715Z,22.37
2017-07-07T10:17:39.680Z,22.47
2017-07-07T10:18:39.823Z,22.51
2017-07-07T10:19:39.418Z,22.55
2017-07-07T10:20:39.782Z,22.52
2017-07-07T10:21:39.472Z,22.42
2017-07-07T10:22:39.509Z,22.12
2017-07-07T10:23:54.441Z,22.25
2017-07-07T10:24:54.468Z,22.46
2017-07-07T10:25:39.566Z,22.64
2017-07-07T10:26:39.929Z,22.88
2017-07-07T10:29:39.694Z,24.1
2017-07-07T10:30:40.036Z,24.58
2017-07-07T10:31:39.746Z,24.83
2017-07-07T10:32:39.764Z,25.33
2017-07-07T10:33:40.111Z,25.4
2017-07-07T10:34:54.745Z,25
2017-07-07T10:35:39.843Z,25.1
2017-07-07T10:36:54.528Z,24.88
2017-07-07T10:37:40.221Z,24.69
2017-07-07T10:38:40.262Z,24.53
2017-07-07T10:39:40.282Z,24.43
2017-07-07T10:40:40.291Z,24.09
2017-07-07T10:41:40.022Z,24
2017-07-07T10:42:40.100Z,24.25
2017-07-07T10:43:40.402Z,24.02
2017-07-07T10:44:55.013Z,24.1
2017-07-07T10:45:40.287Z,24.13
2017-07-07T10:46:40.494Z,24.24
2017-07-07T10:47:40.507Z,24.43
2017-07-07T10:48:40.525Z,24.28
2017-07-07T10:49:40.573Z,24.22
2017-07-07T10:50:55.193Z,24.27
2017-07-07T10:51:40.624Z,24.25
2017-07-07T10:52:40.641Z,24.15
2017-07-07T10:53:40.691Z,24.31
2017-07-07T10:54:40.748Z,24.3
2017-07-07T10:55:40.423Z,24.31
2017-07-07T10:56:40.439Z,24.25
2017-07-07T10:57:40.474Z,24.4
2017-07-07T10:58:40.809Z,24.37
2017-07-07T11:02:40.945Z,24.5
2017-07-07T11:03:40.955Z,24.53
2017-07-07T11:04:40.712Z,24.52
2017-07-07T11:05:40.702Z,24.42
2017-07-07T11:06:40.738Z,24.6
2017-07-07T11:07:55.358Z,24.68
2017-07-07T11:08:40.464Z,24.71
2017-07-07T11:09:41.188Z,24.77
2017-07-07T11:10:41.159Z,24.9
2017-07-07T11:11:41.201Z,24.98
2017-07-07T11:12:41.214Z,25.17
2017-07-07T11:13:41.309Z,25.17
2017-07-07T11:14:41.267Z,25.3
2017-07-07T11:15:41.312Z,25.36
2017-07-07T11:16:41.338Z,25.35
2017-07-07T11:17:41.367Z,25.03
2017-07-07T11:18:41.387Z,25.02
2017-07-07T11:19:41.624Z,25.02
2017-07-07T11:20:41.439Z,24.81
2017-07-07T11:21:41.536Z,24.62
2017-07-07T11:22:41.332Z,24.43
2017-07-07T11:23:41.531Z,24.52
2017-07-07T11:24:41.571Z,24.71
2017-07-07T11:25:41.636Z,25.03
2017-07-07T11:26:41.308Z,25.05
2017-07-07T11:27:41.692Z,25.15
2017-07-07T11:28:41.370Z,25.09
2017-07-07T11:29:41.698Z,25.28
2017-07-07T11:30:41.738Z,25.47
2017-07-07T11:31:56.356Z,25.57
2017-07-07T11:32:41.891Z,25.69
2017-07-07T11:33:41.833Z,25.7
2017-07-07T11:34:41.851Z,25.39
2017-07-07T11:35:56.461Z,25.27
2017-07-07T11:36:41.908Z,25.32
2017-07-07T11:37:41.920Z,25.52
2017-07-07T11:39:42.087Z,25.25
2017-07-07T11:40:42.020Z,25.45
2017-07-07T11:41:42.054Z,25.45
2017-07-07T11:42:42.206Z,25.45
2017-07-07T11:43:41.786Z,25.69
2017-07-07T11:44:42.128Z,25.69
2017-07-07T11:45:42.140Z,25.85
2017-07-07T11:46:42.203Z,25.97
2017-07-07T11:47:56.808Z,25.7
2017-07-07T11:48:42.437Z,25.7
2017-07-07T11:49:42.264Z,25.75
2017-07-07T11:50:42.298Z,25.82
2017-07-07T11:51:42.337Z,26.05
2017-07-07T11:52:42.354Z,26.05
2017-07-07T11:53:42.394Z,26.05
2017-07-07T11:54:42.094Z,26.2
2017-07-07T11:55:42.589Z,26.15
2017-07-07T11:56:42.471Z,26.25
2017-07-07T11:58:42.533Z,26.35
2017-07-07T11:59:42.647Z,26.35
2017-07-07T12:00:42.592Z,26.23
2017-07-07T12:01:42.290Z,26.06
2017-07-07T12:02:42.742Z,26.13
2017-07-07T12:04:42.386Z,26.39
2017-07-07T12:05:42.465Z,26.29
2017-07-07T12:06:42.476Z,26.02
2017-07-07T12:07:57.071Z,26.01
2017-07-07T12:08:42.486Z,26.15
2017-07-07T12:09:57.124Z,26.37
2017-07-07T12:10:42.542Z,26.47
2017-07-07T12:11:42.591Z,26.66
2017-07-07T12:12:42.611Z,26.58
2017-07-07T12:13:42.952Z,26.7
2017-07-07T12:14:57.261Z,26.58
2017-07-07T12:15:42.952Z,26.6
2017-07-07T12:16:42.716Z,26.54
2017-07-07T12:17:42.760Z,26.57
2017-07-07T12:18:42.773Z,26.67
2017-07-07T12:19:57.726Z,26.58
2017-07-07T12:20:43.145Z,26.62
2017-07-07T12:21:42.872Z,26.45
2017-07-07T12:22:42.899Z,26.36
2017-07-07T12:23:42.911Z,26.47
2017-07-07T12:24:42.979Z,26.6
2017-07-07T12:25:43.386Z,26.7
2017-07-07T12:26:43.317Z,26.75
2017-07-07T12:27:57.954Z,26.7
2017-07-07T12:28:43.641Z,26.81
2017-07-07T12:29:43.426Z,27.04
2017-07-07T12:30:43.433Z,27.12
2017-07-07T12:31:43.534Z,27
2017-07-07T12:32:43.494Z,26.75
2017-07-07T12:33:58.124Z,26.47
2017-07-07T12:34:58.170Z,26.57
2017-07-07T12:35:43.575Z,26.72
2017-07-07T12:36:43.621Z,26.95
2017-07-07T12:37:43.662Z,27.07
2017-07-07T12:38:43.033Z,27.34
2017-07-07T12:39:43.703Z,27.7
2017-07-07T12:40:43.728Z,27.85
2017-07-07T12:41:43.793Z,27.97
2017-07-07T12:42:43.797Z,27.97
2017-07-07T12:43:43.806Z,28.09
2017-07-07T12:44:43.526Z,28.15
2017-07-07T12:45:43.560Z,28
2017-07-07T12:46:43.920Z,27.99
2017-07-07T12:47:44.054Z,27.79
2017-07-07T12:49:43.985Z,27.7
2017-07-07T12:50:44.001Z,27.57
2017-07-07T12:51:44.056Z,27.29
2017-07-07T12:52:44.082Z,27.44
2017-07-07T12:53:43.854Z,27.69
2017-07-07T12:54:44.140Z,27.65
2017-07-07T12:55:43.859Z,27.7
2017-07-07T12:56:43.871Z,27.74
2017-07-07T12:57:44.227Z,27.84
2017-07-07T12:58:44.246Z,27.94
2017-07-07T12:59:43.970Z,27.93
2017-07-07T13:00:44.420Z,27.82
2017-07-07T13:01:44.336Z,27.93
2017-07-07T13:02:44.057Z,27.9
2017-07-07T13:03:44.393Z,27.84
2017-07-07T13:04:44.128Z,27.82
2017-07-07T13:05:44.462Z,27.97
2017-07-07T13:06:59.244Z,27.94
2017-07-07T13:08:59.156Z,27.99
2017-07-07T13:09:44.298Z,28.07
2017-07-07T13:11:44.640Z,28.07
2017-07-07T13:12:44.668Z,28.15
2017-07-07T13:13:44.677Z,28.22
2017-07-07T13:14:44.706Z,28.11
2017-07-07T13:15:44.426Z,28.04
2017-07-07T13:16:44.474Z,28.04
2017-07-07T13:17:44.816Z,28.09
2017-07-07T13:18:44.824Z,28.29
2017-07-07T13:19:44.906Z,28.14
2017-07-07T13:20:44.960Z,28.14
2017-07-07T13:21:44.909Z,28.14
2017-07-07T13:22:59.243Z,28.07
2017-07-07T13:24:45.013Z,28.09
2017-07-07T13:25:45.044Z,28.4
2017-07-07T13:26:59.731Z,28.55
2017-07-07T13:27:45.109Z,28.56
2017-07-07T13:28:45.130Z,28.77
2017-07-07T13:29:44.844Z,28.51
2017-07-07T13:31:45.222Z,28.34
2017-07-07T13:32:59.850Z,28.34
2017-07-07T13:33:45.283Z,28.14
2017-07-07T13:34:45.410Z,28.09
2017-07-07T13:35:45.342Z,28.12
2017-07-07T13:36:45.367Z,28.25
2017-07-07T13:37:45.408Z,28.37
2017-07-07T13:39:00.017Z,28.48
2017-07-07T13:39:45.144Z,28.54
2017-07-07T13:40:45.476Z,28.58
2017-07-07T13:41:45.205Z,28.68
2017-07-07T13:43:44.939Z,28.58
2017-07-07T13:44:45.864Z,28.59
2017-07-07T13:45:45.310Z,28.51
2017-07-07T13:46:45.727Z,28.44
2017-07-07T13:47:45.688Z,28.37
2017-07-07T13:48:45.729Z,28.39
2017-07-07T13:49:45.739Z,28.37